createdAt,value
2023-02-16T00:00:58.029Z,5.98
2023-02-16T00:02:14.908Z,5.96
2023-02-16T00:03:21.936Z,5.95
2023-02-16T00:04:26.574Z,5.96
2023-02-16T00:05:33.145Z,5.96
2023-02-16T00:06:34.600Z,5.95
2023-02-16T00:07:36.103Z,5.94
2023-02-16T00:08:37.592Z,5.92
2023-02-16T00:09:39.261Z,5.91
2023-02-16T00:10:40.800Z,5.93
2023-02-16T00:12:01.182Z,5.93
2023-02-16T00:13:42.614Z,5.92
2023-02-16T00:14:44.312Z,5.90
2023-02-16T00:15:46.629Z,5.88
2023-02-16T00:16:49.243Z,5.88
2023-02-16T00:17:51.719Z,5.87
2023-02-16T00:18:53.602Z,5.85
2023-02-16T00:19:55.559Z,5.84
2023-02-16T00:20:57.137Z,5.84
2023-02-16T00:22:00.480Z,5.85
2023-02-16T00:23:01.987Z,5.85
2023-02-16T00:24:03.764Z,5.85
2023-02-16T00:25:05.696Z,5.85
2023-02-16T00:26:25.031Z,5.86
2023-02-16T00:27:26.535Z,5.87
2023-02-16T00:28:28.339Z,5.88
2023-02-16T00:29:33.780Z,5.89
2023-02-16T00:30:35.529Z,5.90
2023-02-16T00:31:39.609Z,5.90
2023-02-16T00:32:41.337Z,5.89
2023-02-16T00:33:42.833Z,5.89
2023-02-16T00:34:45.148Z,5.89
2023-02-16T00:35:47.681Z,5.89
2023-02-16T00:36:50.784Z,5.89
2023-02-16T00:37:52.308Z,5.89
2023-02-16T00:38:53.816Z,5.88
2023-02-16T00:39:55.399Z,5.87
2023-02-16T00:40:57.289Z,5.87
2023-02-16T00:42:02.471Z,5.85
2023-02-16T00:43:03.988Z,5.84
2023-02-16T00:44:13.386Z,5.84
2023-02-16T00:45:20.414Z,5.84
2023-02-16T00:46:22.210Z,5.84
2023-02-16T00:47:36.570Z,5.84
2023-02-16T00:48:38.104Z,5.84
2023-02-16T00:49:39.646Z,5.84
2023-02-16T00:50:41.140Z,5.85
2023-02-16T00:51:44.286Z,5.85
2023-02-16T00:52:46.913Z,5.84
2023-02-16T00:53:48.467Z,5.84
2023-02-16T00:54:49.963Z,5.84
2023-02-16T00:55:52.980Z,5.84
2023-02-16T00:56:55.530Z,5.84
2023-02-16T00:58:15.891Z,5.82
2023-02-16T00:59:19.957Z,5.81
2023-02-16T01:00:31.411Z,5.78
2023-02-16T01:01:34.012Z,5.75
2023-02-16T01:02:35.702Z,5.74
2023-02-16T01:03:37.739Z,5.72
2023-02-16T01:04:40.009Z,5.73
2023-02-16T01:05:41.568Z,5.71
2023-02-16T01:07:01.593Z,5.72
2023-02-16T01:08:27.856Z,5.70
2023-02-16T01:09:47.684Z,5.67
2023-02-16T01:11:09.274Z,5.63
2023-02-16T01:12:17.771Z,5.59
2023-02-16T01:13:19.954Z,5.58
2023-02-16T01:14:21.484Z,5.59
2023-02-16T01:15:25.233Z,5.59
2023-02-16T01:16:37.134Z,5.58
2023-02-16T01:17:39.037Z,5.56
2023-02-16T01:18:40.806Z,5.55
2023-02-16T01:19:42.550Z,5.52
2023-02-16T01:20:44.938Z,5.51
2023-02-16T01:21:46.416Z,5.48
2023-02-16T01:22:48.147Z,5.48
2023-02-16T01:23:49.842Z,5.47
2023-02-16T01:24:51.409Z,5.45
2023-02-16T01:25:52.976Z,5.43
2023-02-16T01:26:54.409Z,5.42
2023-02-16T01:27:56.018Z,5.41
2023-02-16T01:28:57.846Z,5.40
2023-02-16T01:29:59.354Z,5.41
2023-02-16T01:31:01.387Z,5.40
2023-02-16T01:32:03.219Z,5.37
2023-02-16T01:33:04.725Z,5.36
2023-02-16T01:34:06.334Z,5.35
2023-02-16T01:35:09.309Z,5.33
2023-02-16T01:36:33.575Z,5.31
2023-02-16T01:37:35.050Z,5.29
2023-02-16T01:38:36.548Z,5.29
2023-02-16T01:39:38.200Z,5.28
2023-02-16T01:40:51.292Z,5.27
2023-02-16T01:42:22.111Z,5.24
2023-02-16T01:43:42.631Z,5.21
2023-02-16T01:44:54.121Z,5.21
2023-02-16T01:46:05.424Z,5.21
2023-02-16T01:47:21.068Z,5.21
2023-02-16T01:48:28.439Z,5.21
2023-02-16T01:49:29.994Z,5.21
2023-02-16T01:50:47.481Z,5.21
2023-02-16T01:51:57.967Z,5.20
2023-02-16T01:53:12.242Z,5.20
2023-02-16T01:54:34.320Z,5.20
2023-02-16T01:55:47.269Z,5.21
2023-02-16T01:56:54.401Z,5.21
2023-02-16T01:58:20.231Z,5.21
2023-02-16T02:00:25.955Z,5.21
2023-02-16T02:01:39.335Z,5.19
2023-02-16T02:02:48.726Z,5.21
2023-02-16T02:04:09.033Z,5.21
2023-02-16T02:05:35.202Z,5.21
2023-02-16T02:06:37.216Z,5.19
2023-02-16T02:08:16.544Z,5.20
2023-02-16T02:09:25.511Z,5.20
2023-02-16T02:10:36.991Z,5.21
2023-02-16T02:11:45.875Z,5.21
2023-02-16T02:12:54.719Z,5.21
2023-02-16T02:14:08.025Z,5.21
2023-02-16T02:15:11.972Z,5.22
2023-02-16T02:16:18.598Z,5.23
2023-02-16T02:17:21.448Z,5.23
2023-02-16T02:18:23.633Z,5.23
2023-02-16T02:19:25.182Z,5.23
2023-02-16T02:21:13.901Z,5.23
2023-02-16T02:22:43.112Z,5.22
2023-02-16T02:23:50.763Z,5.22
2023-02-16T02:25:32.642Z,5.23
2023-02-16T02:26:40.078Z,5.22
2023-02-16T02:27:56.538Z,5.23
2023-02-16T02:29:45.770Z,5.23
2023-02-16T02:33:04.836Z,5.22
2023-02-16T02:34:06.554Z,5.23
2023-02-16T02:35:28.884Z,5.22
2023-02-16T02:36:42.141Z,5.24
2023-02-16T02:37:56.567Z,5.22
2023-02-16T02:39:16.861Z,5.22
2023-02-16T02:40:25.167Z,5.21
2023-02-16T02:42:03.571Z,5.16
2023-02-16T02:43:18.712Z,5.16
2023-02-16T02:44:24.179Z,5.17
2023-02-16T02:45:34.080Z,5.19
2023-02-16T02:46:36.381Z,5.19
2023-02-16T02:47:43.960Z,5.19
2023-02-16T02:48:45.598Z,5.18
2023-02-16T02:49:54.457Z,5.18
2023-02-16T02:51:21.172Z,5.17
2023-02-16T02:52:23.477Z,5.15
2023-02-16T02:53:25.144Z,5.14
2023-02-16T02:54:51.985Z,5.15
2023-02-16T02:56:12.530Z,5.13
2023-02-16T02:57:36.238Z,5.12
2023-02-16T02:59:10.950Z,5.08
2023-02-16T03:00:38.075Z,5.08
2023-02-16T03:01:46.608Z,5.11
2023-02-16T03:02:52.831Z,5.12
2023-02-16T03:03:57.493Z,5.09
2023-02-16T03:05:02.020Z,5.09
2023-02-16T03:06:04.151Z,5.08
2023-02-16T03:07:08.283Z,5.08
2023-02-16T03:08:13.921Z,5.07
2023-02-16T03:09:16.232Z,5.08
2023-02-16T03:10:41.474Z,5.08
2023-02-16T03:12:03.566Z,5.07
2023-02-16T03:13:11.221Z,5.06
2023-02-16T03:14:26.894Z,5.07
2023-02-16T03:15:30.721Z,5.06
2023-02-16T03:16:44.780Z,5.03
2023-02-16T03:18:05.148Z,5.01
2023-02-16T03:19:27.956Z,5.01
2023-02-16T03:20:48.118Z,5.01
2023-02-16T03:22:09.135Z,5.02
2023-02-16T03:23:29.770Z,5.02
2023-02-16T03:24:50.995Z,5.02
2023-02-16T03:26:11.494Z,5.00
2023-02-16T03:27:53.989Z,4.99
2023-02-16T03:29:15.227Z,5.00
2023-02-16T03:30:18.451Z,5.00
2023-02-16T03:31:26.466Z,5.00
2023-02-16T03:32:28.211Z,5.00
2023-02-16T03:33:30.452Z,5.00
2023-02-16T03:34:34.154Z,5.01
2023-02-16T03:35:36.267Z,5.02
2023-02-16T03:36:41.495Z,5.02
2023-02-16T03:37:44.325Z,5.03
2023-02-16T03:38:45.852Z,5.04
2023-02-16T03:40:06.735Z,5.04
2023-02-16T03:41:08.377Z,5.05
2023-02-16T03:42:10.085Z,5.07
2023-02-16T03:43:11.553Z,5.08
2023-02-16T03:44:13.115Z,5.09
2023-02-16T03:45:14.810Z,5.10
2023-02-16T03:46:16.896Z,5.12
2023-02-16T03:47:18.620Z,5.13
2023-02-16T03:48:20.633Z,5.13
2023-02-16T03:49:22.154Z,5.13
2023-02-16T03:50:25.798Z,5.13
2023-02-16T03:51:27.891Z,5.14
2023-02-16T03:52:29.546Z,5.15
2023-02-16T03:53:31.145Z,5.15
2023-02-16T03:54:32.643Z,5.15
2023-02-16T03:55:42.192Z,5.15
2023-02-16T03:56:43.996Z,5.16
2023-02-16T03:57:45.782Z,5.17
2023-02-16T03:58:47.296Z,5.19
2023-02-16T03:59:50.172Z,5.20
2023-02-16T04:00:52.922Z,5.19
2023-02-16T04:01:54.642Z,5.19
2023-02-16T04:02:56.325Z,5.20
2023-02-16T04:03:57.989Z,5.21
2023-02-16T04:04:59.705Z,5.21
2023-02-16T04:06:01.856Z,5.22
2023-02-16T04:07:03.391Z,5.22
2023-02-16T04:08:05.671Z,5.22
2023-02-16T04:09:07.176Z,5.22
2023-02-16T04:10:08.899Z,5.23
2023-02-16T04:11:28.811Z,5.22
2023-02-16T04:12:36.018Z,5.19
2023-02-16T04:13:37.588Z,5.19
2023-02-16T04:14:39.093Z,5.17
2023-02-16T04:15:40.944Z,5.16
2023-02-16T04:16:42.545Z,5.14
2023-02-16T04:17:44.448Z,5.12
2023-02-16T04:18:46.101Z,5.10
2023-02-16T04:19:47.777Z,5.08
2023-02-16T04:20:49.347Z,5.07
2023-02-16T04:21:52.385Z,5.05
2023-02-16T04:22:54.669Z,5.04
2023-02-16T04:23:56.387Z,5.01
2023-02-16T04:24:57.884Z,5.01
2023-02-16T04:25:59.396Z,5.00
2023-02-16T04:27:00.966Z,4.99
2023-02-16T04:28:02.513Z,4.98
2023-02-16T04:29:04.252Z,4.97
2023-02-16T04:30:08.779Z,4.97
2023-02-16T04:31:10.452Z,4.97
2023-02-16T04:32:12.154Z,4.97
2023-02-16T04:33:14.065Z,4.95
2023-02-16T04:34:15.787Z,4.94
2023-02-16T04:35:18.347Z,4.91
2023-02-16T04:36:19.791Z,4.88
2023-02-16T04:37:21.292Z,4.87
2023-02-16T04:38:22.975Z,4.86
2023-02-16T04:39:24.574Z,4.86
2023-02-16T04:40:26.040Z,4.86
2023-02-16T04:41:27.562Z,4.86
2023-02-16T04:42:29.018Z,4.86
2023-02-16T04:43:31.741Z,4.85
2023-02-16T04:44:33.479Z,4.86
2023-02-16T04:45:34.938Z,4.87
2023-02-16T04:46:36.417Z,4.88
2023-02-16T04:47:37.958Z,4.88
2023-02-16T04:48:39.595Z,4.88
2023-02-16T04:49:41.283Z,4.88
2023-02-16T04:50:42.803Z,4.89
2023-02-16T04:51:44.264Z,4.89
2023-02-16T04:52:45.831Z,4.91
2023-02-16T04:53:47.371Z,4.92
2023-02-16T04:54:49.088Z,4.91
2023-02-16T04:55:50.563Z,4.91
2023-02-16T04:56:52.141Z,4.91
2023-02-16T04:57:53.662Z,4.90
2023-02-16T04:58:55.419Z,4.90
2023-02-16T04:59:57.053Z,4.90
2023-02-16T05:00:58.499Z,4.90
2023-02-16T05:02:00.012Z,4.91
2023-02-16T05:03:01.896Z,4.90
2023-02-16T05:04:03.922Z,4.89
2023-02-16T05:05:06.205Z,4.85
2023-02-16T05:06:07.690Z,4.83
2023-02-16T05:07:09.234Z,4.83
2023-02-16T05:08:10.723Z,4.83
2023-02-16T05:09:12.271Z,4.84
2023-02-16T05:10:14.064Z,4.85
2023-02-16T05:11:33.983Z,4.85
2023-02-16T05:12:54.527Z,4.84
2023-02-16T05:14:16.606Z,4.82
2023-02-16T05:15:18.258Z,4.82
2023-02-16T05:16:21.567Z,4.82
2023-02-16T05:17:25.838Z,4.83
2023-02-16T05:18:27.317Z,4.84
2023-02-16T05:19:29.019Z,4.86
2023-02-16T05:20:49.459Z,4.87
2023-02-16T05:21:50.963Z,4.86
2023-02-16T05:22:52.476Z,4.85
2023-02-16T05:23:53.943Z,4.86
2023-02-16T05:24:56.115Z,4.87
2023-02-16T05:25:58.071Z,4.88
2023-02-16T05:27:01.140Z,4.89
2023-02-16T05:28:02.875Z,4.91
2023-02-16T05:29:05.070Z,4.92
2023-02-16T05:30:07.371Z,4.93
2023-02-16T05:31:09.466Z,4.94
2023-02-16T05:32:11.241Z,4.97
2023-02-16T05:33:12.726Z,4.98
2023-02-16T05:34:14.387Z,4.98
2023-02-16T05:35:16.138Z,5.00
2023-02-16T05:36:17.854Z,5.01
2023-02-16T05:37:19.525Z,5.01
2023-02-16T05:38:20.999Z,5.02
2023-02-16T05:39:22.632Z,5.03
2023-02-16T05:40:24.298Z,5.03
2023-02-16T05:41:26.240Z,5.04
2023-02-16T05:42:27.951Z,5.04
2023-02-16T05:43:29.580Z,5.04
2023-02-16T05:44:31.131Z,5.05
2023-02-16T05:45:32.708Z,5.06
2023-02-16T05:46:37.403Z,5.06
2023-02-16T05:47:39.095Z,5.07
2023-02-16T05:48:40.627Z,5.08
2023-02-16T05:49:42.383Z,5.08
2023-02-16T05:50:43.955Z,5.09
2023-02-16T05:51:45.835Z,5.10
2023-02-16T05:52:47.401Z,5.11
2023-02-16T05:53:48.978Z,5.11
2023-02-16T05:54:50.527Z,5.11
2023-02-16T05:55:52.853Z,5.12
2023-02-16T05:56:55.042Z,5.11
2023-02-16T05:57:56.481Z,5.13
2023-02-16T05:59:00.651Z,5.13
2023-02-16T06:00:04.440Z,5.14
2023-02-16T06:01:06.599Z,5.15
2023-02-16T06:02:09.267Z,5.15
2023-02-16T06:03:10.679Z,5.17
2023-02-16T06:04:14.277Z,5.18
2023-02-16T06:05:16.064Z,5.19
2023-02-16T06:06:17.829Z,5.20
2023-02-16T06:07:19.761Z,5.20
2023-02-16T06:08:21.538Z,5.20
2023-02-16T06:09:23.173Z,5.21
2023-02-16T06:10:26.246Z,5.23
2023-02-16T06:11:36.799Z,5.24
2023-02-16T06:12:38.774Z,5.25
2023-02-16T06:13:40.214Z,5.26
2023-02-16T06:14:41.673Z,5.27
2023-02-16T06:15:43.323Z,5.28
2023-02-16T06:16:48.525Z,5.29
2023-02-16T06:17:50.274Z,5.29
2023-02-16T06:18:52.482Z,5.31
2023-02-16T06:19:54.394Z,5.34
2023-02-16T06:20:56.604Z,5.35
2023-02-16T06:21:58.031Z,5.36
2023-02-16T06:22:59.780Z,5.35
2023-02-16T06:24:01.796Z,5.33
2023-02-16T06:25:03.351Z,5.32
2023-02-16T06:26:04.814Z,5.31
2023-02-16T06:27:06.636Z,5.31
2023-02-16T06:28:08.626Z,5.31
2023-02-16T06:29:10.574Z,5.29
2023-02-16T06:30:12.658Z,5.29
2023-02-16T06:31:14.329Z,5.29
2023-02-16T06:32:17.573Z,5.29
2023-02-16T06:33:19.414Z,5.30
2023-02-16T06:34:20.834Z,5.31
2023-02-16T06:35:22.351Z,5.31
2023-02-16T06:36:24.417Z,5.33
2023-02-16T06:37:26.054Z,5.33
2023-02-16T06:38:27.873Z,5.34
2023-02-16T06:39:29.453Z,5.35
2023-02-16T06:40:30.964Z,5.36
2023-02-16T06:41:37.117Z,5.37
2023-02-16T06:42:38.613Z,5.38
2023-02-16T06:43:40.407Z,5.37
2023-02-16T06:44:43.691Z,5.35
2023-02-16T06:45:45.839Z,5.35
2023-02-16T06:46:48.077Z,5.34
2023-02-16T06:47:49.663Z,5.35
2023-02-16T06:48:51.349Z,5.35
2023-02-16T06:49:52.817Z,5.34
2023-02-16T06:50:54.593Z,5.34
2023-02-16T06:51:56.141Z,5.33
2023-02-16T06:52:57.662Z,5.32
2023-02-16T06:53:59.565Z,5.31
2023-02-16T06:55:01.426Z,5.30
2023-02-16T06:56:03.179Z,5.29
2023-02-16T06:57:04.618Z,5.28
2023-02-16T06:58:06.763Z,5.26
2023-02-16T06:59:10.530Z,5.23
2023-02-16T07:00:12.909Z,5.22
2023-02-16T07:01:14.862Z,5.21
2023-02-16T07:02:16.394Z,5.20
2023-02-16T07:03:17.922Z,5.19
2023-02-16T07:04:19.797Z,5.18
2023-02-16T07:05:21.292Z,5.18
2023-02-16T07:06:24.922Z,5.16
2023-02-16T07:07:26.525Z,5.15
2023-02-16T07:08:28.147Z,5.16
2023-02-16T07:09:29.749Z,5.16
2023-02-16T07:10:43.894Z,5.16
2023-02-16T07:11:50.331Z,5.15
2023-02-16T07:12:51.735Z,5.14
2023-02-16T07:13:53.200Z,5.16
2023-02-16T07:14:54.959Z,5.16
2023-02-16T07:15:57.012Z,5.16
2023-02-16T07:17:02.516Z,5.16
2023-02-16T07:18:04.955Z,5.17
2023-02-16T07:19:06.902Z,5.18
2023-02-16T07:20:08.919Z,5.20
2023-02-16T07:21:10.481Z,5.20
2023-02-16T07:22:12.020Z,5.20
2023-02-16T07:23:13.548Z,5.21
2023-02-16T07:24:15.122Z,5.22
2023-02-16T07:25:16.989Z,5.23
2023-02-16T07:26:18.613Z,5.24
2023-02-16T07:27:20.036Z,5.25
2023-02-16T07:28:21.577Z,5.26
2023-02-16T07:29:23.118Z,5.27
2023-02-16T07:30:24.872Z,5.29
2023-02-16T07:31:26.608Z,5.31
2023-02-16T07:32:28.954Z,5.31
2023-02-16T07:33:30.476Z,5.32
2023-02-16T07:34:32.252Z,5.33
2023-02-16T07:35:34.941Z,5.32
2023-02-16T07:36:36.465Z,5.32
2023-02-16T07:37:38.170Z,5.33
2023-02-16T07:38:45.266Z,5.33
2023-02-16T07:40:16.542Z,5.33
2023-02-16T07:41:19.147Z,5.34
2023-02-16T07:42:21.122Z,5.35
2023-02-16T07:43:23.633Z,5.38
2023-02-16T07:44:25.125Z,5.41
2023-02-16T07:45:27.259Z,5.43
2023-02-16T07:46:28.820Z,5.45
2023-02-16T07:48:49.569Z,5.52
2023-02-16T07:49:52.469Z,5.53
2023-02-16T07:50:55.338Z,5.54
2023-02-16T07:51:58.386Z,5.56
2023-02-16T07:53:02.853Z,5.56
2023-02-16T07:54:06.137Z,5.54
2023-02-16T07:55:10.061Z,5.53
2023-02-16T07:56:27.716Z,5.53
2023-02-16T07:57:30.757Z,5.53
2023-02-16T07:58:33.638Z,5.53
2023-02-16T07:59:36.485Z,5.53
2023-02-16T08:00:39.341Z,5.54
2023-02-16T08:01:42.588Z,5.55
2023-02-16T08:02:45.899Z,5.55
2023-02-16T08:03:49.339Z,5.57
2023-02-16T08:04:52.957Z,5.59
2023-02-16T08:05:55.923Z,5.61
2023-02-16T08:06:58.840Z,5.65
2023-02-16T08:08:01.927Z,5.68
2023-02-16T08:09:05.274Z,5.70
2023-02-16T08:10:09.021Z,5.73
2023-02-16T08:11:12.927Z,5.75
2023-02-16T08:12:17.105Z,5.77
2023-02-16T08:13:20.419Z,5.78
2023-02-16T08:14:23.313Z,5.79
2023-02-16T08:15:26.208Z,5.81
2023-02-16T08:16:29.575Z,5.83
2023-02-16T08:17:32.492Z,5.84
2023-02-16T08:18:35.725Z,5.85
2023-02-16T08:19:38.903Z,5.85
2023-02-16T08:21:03.320Z,5.87
2023-02-16T08:22:06.178Z,5.89
2023-02-16T08:23:10.384Z,5.89
2023-02-16T08:24:13.817Z,5.91
2023-02-16T08:25:16.728Z,5.93
2023-02-16T08:26:21.188Z,5.94
2023-02-16T08:27:24.921Z,5.97
2023-02-16T08:28:28.967Z,5.98
2023-02-16T08:29:32.829Z,5.99
2023-02-16T08:30:36.293Z,6.02
2023-02-16T08:31:39.642Z,6.04
2023-02-16T08:32:43.660Z,6.07
2023-02-16T08:33:48.028Z,6.09
2023-02-16T08:34:51.359Z,6.11
2023-02-16T08:35:54.203Z,6.12
2023-02-16T08:36:57.693Z,6.14
2023-02-16T08:38:02.398Z,6.15
2023-02-16T08:39:17.251Z,6.16
2023-02-16T08:40:24.690Z,6.17
2023-02-16T08:41:36.223Z,6.17
2023-02-16T08:42:39.415Z,6.18
2023-02-16T08:43:42.388Z,6.19
2023-02-16T08:44:45.410Z,6.21
2023-02-16T08:45:49.256Z,6.24
2023-02-16T08:46:55.169Z,6.25
2023-02-16T08:48:01.334Z,6.26
2023-02-16T08:49:04.197Z,6.28
2023-02-16T08:50:07.851Z,6.31
2023-02-16T08:51:20.330Z,6.33
2023-02-16T08:52:23.241Z,6.35
2023-02-16T08:53:28.063Z,6.38
2023-02-16T08:54:33.524Z,6.41
2023-02-16T08:55:36.565Z,6.44
2023-02-16T08:56:39.885Z,6.44
2023-02-16T08:57:42.880Z,6.47
2023-02-16T08:58:47.150Z,6.49
2023-02-16T09:00:10.022Z,6.53
2023-02-16T09:01:15.343Z,6.57
2023-02-16T09:02:18.443Z,6.61
2023-02-16T09:03:22.329Z,6.65
2023-02-16T09:04:25.775Z,6.68
2023-02-16T09:05:28.759Z,6.72
2023-02-16T09:06:31.668Z,6.74
2023-02-16T09:07:35.129Z,6.75
2023-02-16T09:08:38.662Z,6.78
2023-02-16T09:09:42.785Z,6.81
2023-02-16T09:10:46.032Z,6.82
2023-02-16T09:11:49.490Z,6.83
2023-02-16T09:12:52.534Z,6.87
2023-02-16T09:13:55.696Z,6.90
2023-02-16T09:14:58.547Z,6.91
2023-02-16T09:16:09.878Z,6.93
2023-02-16T09:17:12.837Z,6.96
2023-02-16T09:18:16.609Z,6.99
2023-02-16T09:19:21.380Z,7.00
2023-02-16T09:20:24.387Z,7.03
2023-02-16T09:21:28.349Z,7.06
2023-02-16T09:22:31.741Z,7.09
2023-02-16T09:23:35.796Z,7.13
2023-02-16T09:24:38.922Z,7.17
2023-02-16T09:25:42.117Z,7.20
2023-02-16T09:26:45.008Z,7.25
2023-02-16T09:27:48.015Z,7.28
2023-02-16T09:28:53.384Z,7.31
2023-02-16T09:29:58.690Z,7.34
2023-02-16T09:31:11.666Z,7.38
2023-02-16T09:32:15.504Z,7.41
2023-02-16T09:33:18.465Z,7.44
2023-02-16T09:34:23.419Z,7.47
2023-02-16T09:35:27.220Z,7.53
2023-02-16T09:36:30.846Z,7.57
2023-02-16T09:37:33.689Z,7.62
2023-02-16T09:38:39.670Z,7.67
2023-02-16T09:39:42.794Z,7.72
2023-02-16T09:40:45.719Z,7.77
2023-02-16T09:42:24.465Z,7.80
2023-02-16T09:43:49.378Z,7.82
2023-02-16T09:45:11.687Z,7.85
2023-02-16T09:46:22.509Z,7.90
2023-02-16T09:47:31.556Z,7.95
2023-02-16T09:48:43.124Z,8.00
2023-02-16T09:49:47.113Z,8.05
2023-02-16T09:50:54.874Z,8.08
2023-02-16T09:52:27.242Z,8.10
2023-02-16T09:53:41.896Z,8.09
2023-02-16T09:54:50.441Z,8.09
2023-02-16T09:56:22.648Z,8.09
2023-02-16T09:57:31.422Z,8.10
2023-02-16T09:58:45.323Z,8.12
2023-02-16T09:59:56.447Z,8.13
2023-02-16T10:01:29.066Z,8.14
2023-02-16T10:02:54.662Z,8.18
2023-02-16T10:04:16.745Z,8.23
2023-02-16T10:05:42.382Z,8.29
2023-02-16T10:07:07.565Z,8.34
2023-02-16T10:08:15.679Z,8.38
2023-02-16T10:09:20.628Z,8.40
2023-02-16T10:10:29.695Z,8.43
2023-02-16T10:11:51.549Z,8.45
2023-02-16T10:13:05.286Z,8.46
2023-02-16T10:14:23.215Z,8.48
2023-02-16T10:15:30.439Z,8.50
2023-02-16T10:16:42.851Z,8.54
2023-02-16T10:17:52.192Z,8.57
2023-02-16T10:18:56.601Z,8.59
2023-02-16T10:20:13.105Z,8.63
2023-02-16T10:21:22.367Z,8.66
2023-02-16T10:22:44.367Z,8.69
2023-02-16T10:24:02.196Z,8.69
2023-02-16T10:25:16.981Z,8.72
2023-02-16T10:27:02.596Z,8.75
2023-02-16T10:28:16.560Z,8.80
2023-02-16T10:29:23.346Z,8.88
2023-02-16T10:30:32.562Z,8.95
2023-02-16T10:31:44.674Z,9.02
2023-02-16T10:32:56.738Z,9.08
2023-02-16T10:34:27.640Z,9.15
2023-02-16T10:35:46.200Z,9.22
2023-02-16T10:37:02.345Z,9.28
2023-02-16T10:38:18.371Z,9.33
2023-02-16T10:39:42.576Z,9.37
2023-02-16T10:41:12.277Z,9.39
2023-02-16T10:42:43.790Z,9.40
2023-02-16T10:43:53.094Z,9.43
2023-02-16T10:45:34.833Z,9.47
2023-02-16T10:46:43.076Z,9.54
2023-02-16T10:47:47.287Z,9.56
2023-02-16T10:48:54.526Z,9.59
2023-02-16T10:49:57.999Z,9.61
2023-02-16T10:51:16.741Z,9.63
2023-02-16T10:52:21.141Z,9.66
2023-02-16T10:53:52.458Z,9.69
2023-02-16T10:54:56.302Z,9.73
2023-02-16T10:55:59.667Z,9.73
2023-02-16T10:57:30.029Z,9.75
2023-02-16T10:58:42.033Z,9.76
2023-02-16T10:59:46.996Z,9.78
2023-02-16T11:00:58.619Z,9.79
2023-02-16T11:02:04.526Z,9.82
2023-02-16T11:03:12.441Z,9.87
2023-02-16T11:04:34.664Z,9.92
2023-02-16T11:05:39.804Z,9.98
2023-02-16T11:06:42.766Z,10.02
2023-02-16T11:07:57.497Z,10.04
2023-02-16T11:09:03.164Z,10.07
2023-02-16T11:10:20.858Z,10.07
2023-02-16T11:11:27.839Z,10.08
2023-02-16T11:12:35.329Z,10.08
2023-02-16T11:13:38.540Z,10.09
2023-02-16T11:14:48.749Z,10.10
2023-02-16T11:15:54.822Z,10.11
2023-02-16T11:17:12.684Z,10.11
2023-02-16T11:18:30.398Z,10.15
2023-02-16T11:19:35.465Z,10.18
2023-02-16T11:20:42.252Z,10.21
2023-02-16T11:21:56.507Z,10.24
2023-02-16T11:23:14.645Z,10.28
2023-02-16T11:24:38.279Z,10.33
2023-02-16T11:25:42.577Z,10.37
2023-02-16T11:27:01.098Z,10.40
2023-02-16T11:28:05.397Z,10.44
2023-02-16T11:29:19.986Z,10.48
2023-02-16T11:30:43.571Z,10.54
2023-02-16T11:31:46.916Z,10.63
2023-02-16T11:32:51.923Z,10.69
2023-02-16T11:34:24.227Z,10.75
2023-02-16T11:35:27.621Z,10.72
2023-02-16T11:36:47.340Z,10.63
2023-02-16T11:37:51.121Z,10.46
2023-02-16T11:39:14.061Z,10.34
2023-02-16T11:40:24.663Z,10.19
2023-02-16T11:41:31.731Z,10.09
2023-02-16T11:42:47.458Z,10.01
2023-02-16T11:43:50.592Z,9.94
2023-02-16T11:44:57.173Z,9.90
2023-02-16T11:46:05.113Z,9.97
2023-02-16T11:47:36.644Z,10.23
2023-02-16T11:48:39.630Z,10.79
2023-02-16T11:49:42.750Z,11.27
2023-02-16T11:50:57.111Z,11.75
2023-02-16T11:52:01.611Z,12.21
2023-02-16T11:53:10.445Z,12.41
2023-02-16T11:54:17.997Z,12.48
2023-02-16T11:55:28.066Z,12.43
2023-02-16T11:56:34.423Z,12.33
2023-02-16T11:57:38.794Z,12.24
2023-02-16T11:58:41.694Z,12.15
2023-02-16T11:59:44.573Z,12.02
2023-02-16T12:01:04.626Z,11.91
2023-02-16T12:02:10.805Z,11.74
2023-02-16T12:03:48.080Z,11.62
2023-02-16T12:05:31.937Z,11.47
2023-02-16T12:06:43.092Z,11.37
2023-02-16T12:08:20.593Z,11.32
2023-02-16T12:10:00.196Z,11.32
2023-02-16T12:11:15.977Z,11.42
2023-02-16T12:12:43.739Z,11.50
2023-02-16T12:14:04.412Z,11.62
2023-02-16T12:15:25.757Z,11.69
2023-02-16T12:16:40.990Z,11.77
2023-02-16T12:18:15.379Z,11.86
2023-02-16T12:19:41.894Z,11.95
2023-02-16T12:20:54.839Z,12.03
2023-02-16T12:22:24.512Z,12.07
2023-02-16T12:23:39.046Z,12.12
2023-02-16T12:25:03.904Z,12.20
2023-02-16T12:26:07.270Z,12.29
2023-02-16T12:27:18.585Z,12.34
2023-02-16T12:29:00.106Z,12.36
2023-02-16T12:30:08.193Z,12.40
2023-02-16T12:31:47.549Z,12.45
2023-02-16T12:33:15.924Z,12.56
2023-02-16T12:34:47.084Z,12.69
2023-02-16T12:36:12.359Z,12.83
2023-02-16T12:38:13.080Z,12.96
2023-02-16T12:39:29.951Z,13.18
2023-02-16T12:40:46.605Z,13.34
2023-02-16T12:42:21.115Z,13.52
2023-02-16T12:43:24.188Z,13.76
2023-02-16T12:44:42.786Z,13.90
2023-02-16T12:45:47.241Z,14.07
2023-02-16T12:47:00.703Z,14.21
2023-02-16T12:48:40.197Z,14.36
2023-02-16T12:49:55.483Z,14.52
2023-02-16T12:51:02.683Z,14.62
2023-02-16T12:52:29.620Z,14.73
2023-02-16T12:53:57.060Z,14.89
2023-02-16T12:55:20.765Z,15.02
2023-02-16T12:56:31.277Z,15.11
2023-02-16T12:57:34.910Z,15.17
2023-02-16T12:58:42.530Z,15.20
2023-02-16T12:59:59.573Z,15.24
2023-02-16T13:01:23.716Z,15.24
2023-02-16T13:02:34.231Z,15.22
2023-02-16T13:03:53.075Z,15.18
2023-02-16T13:05:12.128Z,15.16
2023-02-16T13:06:33.957Z,15.17
2023-02-16T13:07:43.182Z,15.18
2023-02-16T13:09:05.290Z,15.20
2023-02-16T13:10:24.587Z,15.24
2023-02-16T13:11:38.172Z,15.31
2023-02-16T13:13:16.202Z,15.35
2023-02-16T13:14:25.463Z,15.38
2023-02-16T13:15:39.194Z,15.40
2023-02-16T13:16:59.255Z,15.40
2023-02-16T13:18:07.090Z,15.37
2023-02-16T13:19:14.493Z,15.35
2023-02-16T13:20:20.717Z,15.33
2023-02-16T13:22:07.348Z,15.31
2023-02-16T13:23:22.503Z,15.30
2023-02-16T13:25:13.012Z,15.32
2023-02-16T13:26:38.054Z,15.36
2023-02-16T13:28:12.849Z,15.37
2023-02-16T13:29:53.324Z,15.39
2023-02-16T13:31:23.817Z,15.40
2023-02-16T13:32:38.659Z,15.39
2023-02-16T13:34:19.164Z,15.35
2023-02-16T13:35:33.751Z,15.32
2023-02-16T13:37:23.968Z,15.33
2023-02-16T13:38:56.978Z,15.37
2023-02-16T13:40:29.470Z,15.39
2023-02-16T13:41:44.820Z,15.38
2023-02-16T13:42:57.976Z,15.40
2023-02-16T13:44:07.968Z,15.29
2023-02-16T13:45:32.843Z,15.17
2023-02-16T13:46:46.892Z,15.01
2023-02-16T13:47:53.526Z,14.86
2023-02-16T13:48:57.751Z,14.77
2023-02-16T13:50:05.228Z,14.68
2023-02-16T13:51:20.956Z,14.61
2023-02-16T13:52:37.264Z,14.55
2023-02-16T13:53:42.963Z,14.49
2023-02-16T13:54:50.204Z,14.46
2023-02-16T13:56:36.299Z,14.43
2023-02-16T13:57:50.827Z,14.35
2023-02-16T13:58:57.923Z,14.26
2023-02-16T14:00:05.841Z,14.16
2023-02-16T14:01:32.371Z,14.06
2023-02-16T14:03:04.178Z,13.96
2023-02-16T14:04:23.888Z,13.89
2023-02-16T14:05:31.242Z,13.82
2023-02-16T14:06:40.084Z,13.75
2023-02-16T14:07:43.375Z,13.65
2023-02-16T14:09:12.284Z,13.56
2023-02-16T14:10:16.008Z,13.47
2023-02-16T14:11:19.660Z,13.42
2023-02-16T14:12:36.109Z,13.33
2023-02-16T14:13:38.946Z,13.22
2023-02-16T14:14:41.921Z,13.12
2023-02-16T14:15:53.198Z,13.04
2023-02-16T14:16:56.770Z,12.98
2023-02-16T14:17:59.634Z,12.94
2023-02-16T14:19:25.132Z,12.87
2023-02-16T14:20:30.127Z,12.76
2023-02-16T14:21:42.794Z,12.68
2023-02-16T14:22:45.592Z,12.59
2023-02-16T14:23:56.352Z,12.52
2023-02-16T14:25:02.892Z,12.45
2023-02-16T14:26:08.173Z,12.40
2023-02-16T14:27:13.331Z,12.34
2023-02-16T14:28:16.136Z,12.29
2023-02-16T14:29:24.493Z,12.25
2023-02-16T14:30:34.634Z,12.22
2023-02-16T14:31:47.046Z,12.20
2023-02-16T14:33:01.621Z,12.17
2023-02-16T14:34:15.495Z,12.13
2023-02-16T14:35:27.384Z,12.08
2023-02-16T14:36:31.369Z,12.01
2023-02-16T14:37:41.561Z,11.94
2023-02-16T14:38:50.666Z,11.85
2023-02-16T14:40:07.735Z,11.79
2023-02-16T14:41:24.591Z,11.72
2023-02-16T14:42:34.872Z,11.63
2023-02-16T14:43:44.357Z,11.58
2023-02-16T14:44:50.337Z,11.52
2023-02-16T14:46:18.236Z,11.44
2023-02-16T14:47:34.922Z,11.30
2023-02-16T14:48:51.663Z,11.19
2023-02-16T14:50:22.355Z,11.07
2023-02-16T14:51:46.742Z,10.95
2023-02-16T14:53:21.676Z,10.82
2023-02-16T14:54:50.583Z,10.73
2023-02-16T14:56:09.099Z,10.64
2023-02-16T14:57:27.249Z,10.57
2023-02-16T14:58:51.920Z,10.50
2023-02-16T15:00:03.226Z,10.41
2023-02-16T15:01:17.734Z,10.33
2023-02-16T15:02:36.121Z,10.24
2023-02-16T15:03:48.335Z,10.14
2023-02-16T15:04:51.486Z,10.06
2023-02-16T15:06:04.400Z,9.98
2023-02-16T15:07:07.703Z,9.91
2023-02-16T15:08:22.915Z,9.85
2023-02-16T15:09:31.219Z,9.77
2023-02-16T15:10:34.362Z,9.77
2023-02-16T15:12:01.082Z,9.85
2023-02-16T15:13:04.425Z,9.98
2023-02-16T15:14:11.415Z,10.06
2023-02-16T15:15:21.289Z,10.15
2023-02-16T15:16:24.745Z,10.21